createdAt,value
2018-06-27T00:01:01.293Z,9.43
2018-06-27T00:03:29.642Z,10.07
2018-06-27T00:05:57.950Z,9.80
2018-06-27T00:08:26.270Z,8.97
2018-06-27T00:10:54.587Z,9.27
2018-06-27T00:13:22.921Z,10.47
2018-06-27T00:15:51.223Z,8.97
2018-06-27T00:18:19.291Z,9.33
2018-06-27T00:20:47.352Z,8.63
2018-06-27T00:23:15.659Z,9.20
2018-06-27T00:25:43.940Z,9.50
2018-06-27T00:28:12.267Z,9.20
2018-06-27T00:30:40.542Z,9.40
2018-06-27T00:33:08.868Z,8.83
2018-06-27T00:35:37.156Z,9.30
2018-06-27T00:38:11.129Z,9.10
2018-06-27T00:40:39.461Z,9.20
2018-06-27T00:43:07.759Z,9.27
2018-06-27T00:45:36.083Z,8.87
2018-06-27T00:48:04.424Z,9.57
2018-06-27T00:50:32.745Z,9.80
2018-06-27T00:53:01.057Z,9.83
2018-06-27T00:55:29.380Z,9.60
2018-06-27T00:57:57.724Z,10.33
2018-06-27T01:00:26.060Z,9.90
2018-06-27T01:02:54.386Z,10.07
2018-06-27T01:05:22.457Z,9.27
2018-06-27T01:07:50.781Z,10.37
2018-06-27T01:10:19.060Z,9.80
2018-06-27T01:12:47.380Z,9.73
2018-06-27T01:15:15.704Z,9.90
2018-06-27T01:17:49.448Z,9.30
2018-06-27T01:20:17.767Z,9.70
2018-06-27T01:22:46.100Z,9.73
2018-06-27T01:25:14.410Z,9.30
2018-06-27T01:27:42.471Z,10.37
2018-06-27T01:30:10.956Z,9.20
2018-06-27T01:32:39.338Z,9.53
2018-06-27T01:35:07.677Z,10.13
2018-06-27T01:37:35.982Z,10.00
2018-06-27T01:40:04.313Z,9.47
2018-06-27T01:42:32.614Z,10.63
2018-06-27T01:45:01.108Z,9.23
2018-06-27T01:47:29.446Z,9.43
2018-06-27T01:49:58.178Z,9.63
2018-06-27T01:52:26.520Z,9.63
2018-06-27T01:54:54.849Z,9.97
2018-06-27T01:57:23.175Z,9.97
2018-06-27T01:59:51.482Z,9.37
2018-06-27T02:02:19.828Z,9.53
2018-06-27T02:04:48.138Z,9.33
2018-06-27T02:07:16.464Z,10.07
2018-06-27T02:09:44.845Z,9.77
2018-06-27T02:12:13.187Z,9.80
2018-06-27T02:14:41.512Z,8.77
2018-06-27T02:17:09.841Z,9.10
2018-06-27T02:19:38.179Z,9.43
2018-06-27T02:22:06.598Z,10.37
2018-06-27T02:24:34.914Z,10.70
2018-06-27T02:27:03.269Z,10.77
2018-06-27T02:29:31.596Z,9.83
2018-06-27T02:31:59.910Z,10.13
2018-06-27T02:34:27.948Z,10.07
2018-06-27T02:36:56.254Z,10.47
2018-06-27T02:39:24.269Z,10.60
2018-06-27T02:41:52.599Z,10.17
2018-06-27T02:44:20.910Z,10.77
2018-06-27T02:46:49.208Z,10.30
2018-06-27T02:49:17.501Z,10.30
2018-06-27T02:51:45.813Z,10.60
2018-06-27T02:54:14.142Z,10.77
2018-06-27T02:56:42.456Z,10.20
2018-06-27T02:59:10.772Z,10.73
2018-06-27T03:01:39.116Z,9.70
2018-06-27T03:04:07.475Z,10.33
2018-06-27T03:06:35.532Z,11.13
2018-06-27T03:09:05.640Z,11.17
2018-06-27T03:11:33.954Z,10.30
2018-06-27T03:14:02.280Z,11.40
2018-06-27T03:16:30.585Z,10.57
2018-06-27T03:18:59.116Z,11.17
2018-06-27T03:21:27.434Z,11.33
2018-06-27T03:23:55.744Z,11.70
2018-06-27T03:26:24.439Z,11.63
2018-06-27T03:28:52.746Z,11.73
2018-06-27T03:31:21.064Z,12.37
2018-06-27T03:33:49.462Z,11.70
2018-06-27T03:36:17.722Z,11.53
2018-06-27T03:38:46.069Z,11.83
2018-06-27T03:41:14.438Z,11.97
2018-06-27T03:43:42.753Z,11.77
2018-06-27T03:46:10.812Z,11.70
2018-06-27T03:48:39.120Z,11.20
2018-06-27T03:51:07.410Z,11.07
2018-06-27T03:53:38.664Z,12.00
2018-06-27T03:56:07.594Z,12.00
2018-06-27T03:58:36.698Z,11.47
2018-06-27T04:01:05.468Z,11.70
2018-06-27T04:03:33.855Z,12.13
2018-06-27T04:06:02.203Z,12.17
2018-06-27T04:08:30.560Z,12.13
2018-06-27T04:10:58.942Z,12.20
2018-06-27T04:13:27.504Z,12.53
2018-06-27T04:15:55.698Z,12.27
2018-06-27T04:18:24.030Z,12.17
2018-06-27T04:20:52.492Z,12.60
2018-06-27T04:23:20.804Z,12.97
2018-06-27T04:25:49.113Z,12.57
2018-06-27T04:28:17.451Z,13.30
2018-06-27T04:30:45.813Z,13.43
2018-06-27T04:33:14.224Z,13.60
2018-06-27T04:35:42.568Z,13.50
2018-06-27T04:38:11.034Z,13.10
2018-06-27T04:40:39.546Z,14.60
2018-06-27T04:43:08.192Z,14.40
2018-06-27T04:45:36.458Z,13.27
2018-06-27T04:48:04.886Z,13.33
2018-06-27T04:50:33.230Z,14.17
2018-06-27T04:53:01.559Z,14.63
2018-06-27T04:55:30.074Z,13.67
2018-06-27T04:57:58.400Z,14.57
2018-06-27T05:00:27.892Z,16.23
2018-06-27T05:02:56.222Z,16.67
2018-06-27T05:05:24.861Z,16.70
2018-06-27T05:07:53.660Z,18.93
2018-06-27T05:10:21.743Z,20.43
2018-06-27T05:12:50.134Z,22.67
2018-06-27T05:15:18.798Z,22.50
2018-06-27T05:17:47.587Z,22.73
2018-06-27T05:20:15.961Z,22.97
2018-06-27T05:22:44.351Z,23.30
2018-06-27T05:25:12.740Z,22.10
2018-06-27T05:27:41.356Z,22.73
2018-06-27T05:30:09.964Z,22.93
2018-06-27T05:32:38.720Z,23.73
2018-06-27T05:35:07.082Z,25.23
2018-06-27T05:37:35.420Z,25.10
2018-06-27T05:40:03.805Z,24.07
2018-06-27T05:42:32.172Z,24.40
2018-06-27T05:45:00.638Z,25.53
2018-06-27T05:47:28.930Z,26.37
2018-06-27T05:49:57.203Z,25.93
2018-06-27T05:52:26.616Z,26.50
2018-06-27T05:55:00.411Z,25.97
2018-06-27T05:57:28.696Z,26.87
2018-06-27T05:59:57.018Z,25.77
2018-06-27T06:02:25.324Z,25.47
2018-06-27T06:04:53.657Z,26.30
2018-06-27T06:07:22.570Z,25.47
2018-06-27T06:09:50.944Z,26.67
2018-06-27T06:12:19.293Z,26.17
2018-06-27T06:14:47.352Z,26.10
2018-06-27T06:17:15.430Z,25.40
2018-06-27T06:19:43.507Z,25.90
2018-06-27T06:22:11.850Z,25.80
2018-06-27T06:24:45.367Z,25.97
2018-06-27T06:27:14.756Z,26.60
2018-06-27T06:29:44.059Z,25.43
2018-06-27T06:32:12.391Z,25.57
2018-06-27T06:34:41.239Z,25.60
2018-06-27T06:37:09.512Z,26.70
2018-06-27T06:39:37.850Z,26.00
2018-06-27T06:42:06.376Z,25.63
2018-06-27T06:44:34.708Z,24.63
2018-06-27T06:47:03.430Z,26.40
2018-06-27T06:49:31.744Z,24.33
2018-06-27T06:52:00.062Z,25.30
2018-06-27T06:54:28.637Z,24.07
2018-06-27T06:56:57.546Z,24.10
2018-06-27T06:59:25.845Z,25.23
2018-06-27T07:01:54.153Z,24.83
2018-06-27T07:04:22.468Z,25.73
2018-06-27T07:06:51.982Z,25.63
2018-06-27T07:09:20.272Z,26.27
2018-06-27T07:11:48.712Z,26.10
2018-06-27T07:14:17.074Z,26.00
2018-06-27T07:16:45.353Z,25.70
2018-06-27T07:19:13.676Z,26.10
2018-06-27T07:21:41.998Z,25.40
2018-06-27T07:24:10.292Z,26.63
2018-06-27T07:26:38.622Z,24.47
2018-06-27T07:29:07.138Z,25.30
2018-06-27T07:31:35.482Z,26.17
2018-06-27T07:34:03.838Z,24.43
2018-06-27T07:36:32.178Z,25.03
2018-06-27T07:39:00.470Z,25.63
2018-06-27T07:41:28.806Z,25.87
2018-06-27T07:43:57.108Z,28.07
2018-06-27T07:46:25.412Z,26.80
2018-06-27T07:48:54.085Z,26.43
2018-06-27T07:51:22.405Z,25.00
2018-06-27T07:53:50.706Z,26.17
2018-06-27T07:56:19.010Z,25.53
2018-06-27T07:58:47.302Z,25.97
2018-06-27T08:01:15.636Z,26.30
2018-06-27T08:03:44.146Z,25.90
2018-06-27T08:06:12.464Z,28.63
2018-06-27T08:08:40.830Z,28.30
2018-06-27T08:11:09.157Z,27.13
2018-06-27T08:13:37.468Z,27.30
2018-06-27T08:16:05.802Z,27.00
2018-06-27T08:18:42.825Z,27.03
2018-06-27T08:21:11.326Z,27.33
2018-06-27T08:23:39.785Z,25.93
2018-06-27T08:26:08.236Z,30.23
2018-06-27T08:28:36.468Z,27.33
2018-06-27T08:31:04.576Z,26.57
2018-06-27T08:33:32.882Z,26.03
2018-06-27T08:36:01.182Z,26.50
2018-06-27T08:38:29.532Z,27.27
2018-06-27T08:40:57.890Z,24.70
2018-06-27T08:43:26.520Z,26.63
2018-06-27T08:45:54.800Z,26.37
2018-06-27T08:48:23.140Z,24.67
2018-06-27T08:50:51.468Z,24.13
2018-06-27T08:53:19.768Z,23.50
2018-06-27T08:55:48.096Z,23.47
2018-06-27T08:58:16.440Z,22.43
2018-06-27T09:00:44.768Z,21.77
2018-06-27T09:03:13.102Z,21.60
2018-06-27T09:05:41.398Z,20.37
2018-06-27T09:08:09.720Z,19.80
2018-06-27T09:10:38.070Z,19.00
2018-06-27T09:13:06.466Z,21.03
2018-06-27T09:15:34.534Z,20.33
2018-06-27T09:18:02.844Z,19.90
2018-06-27T09:20:31.256Z,20.53
2018-06-27T09:22:59.560Z,19.73
2018-06-27T09:25:27.929Z,18.20
2018-06-27T09:27:56.260Z,19.70
2018-06-27T09:30:24.580Z,20.00
2018-06-27T09:32:52.880Z,21.80
2018-06-27T09:35:21.364Z,20.03
2018-06-27T09:37:49.707Z,19.33
2018-06-27T09:40:18.129Z,19.73
2018-06-27T09:42:46.532Z,20.67
2018-06-27T09:45:14.970Z,20.73
2018-06-27T09:47:43.272Z,18.63
2018-06-27T09:50:11.806Z,19.43
2018-06-27T09:52:40.180Z,17.93
2018-06-27T09:55:08.492Z,18.37
2018-06-27T09:57:36.854Z,16.57
2018-06-27T10:00:05.806Z,15.57
2018-06-27T10:02:34.142Z,13.57
2018-06-27T10:05:02.452Z,13.40
2018-06-27T10:07:30.772Z,14.07
2018-06-27T10:09:59.058Z,13.47
2018-06-27T10:12:27.516Z,12.90
2018-06-27T10:14:55.826Z,13.00
2018-06-27T10:17:24.192Z,13.63
2018-06-27T10:19:52.498Z,12.83
2018-06-27T10:22:20.877Z,13.97
2018-06-27T10:24:49.266Z,13.63
2018-06-27T10:27:17.601Z,12.67
2018-06-27T10:29:45.967Z,12.97
2018-06-27T10:32:14.313Z,12.83
2018-06-27T10:34:42.619Z,13.03
2018-06-27T10:37:10.969Z,13.13
2018-06-27T10:39:39.296Z,12.13
2018-06-27T10:42:07.647Z,13.43
2018-06-27T10:44:43.876Z,13.73
2018-06-27T10:47:12.212Z,14.10
2018-06-27T10:49:40.274Z,12.87
2018-06-27T10:52:08.626Z,10.97
2018-06-27T10:54:43.177Z,11.77
2018-06-27T10:57:11.498Z,9.80
2018-06-27T10:59:39.821Z,11.20
2018-06-27T11:02:08.160Z,9.50
2018-06-27T11:04:36.532Z,10.27
2018-06-27T11:07:04.874Z,12.27
2018-06-27T11:09:33.206Z,9.83
2018-06-27T11:12:01.580Z,10.90
2018-06-27T11:14:29.940Z,12.57
2018-06-27T11:16:58.366Z,11.97
2018-06-27T11:19:26.738Z,11.33
2018-06-27T13:15:12.595Z,10.77
2018-06-27T13:17:40.964Z,12.33
2018-06-27T13:20:09.326Z,10.43
2018-06-27T13:22:37.398Z,10.50
2018-06-27T13:25:05.798Z,11.93
2018-06-27T13:27:33.828Z,10.10
2018-06-27T13:30:02.218Z,10.37
2018-06-27T13:32:30.580Z,10.43
2018-06-27T13:34:59.002Z,9.90
2018-06-27T13:37:27.286Z,9.00
2018-06-27T13:39:55.602Z,10.40
2018-06-27T13:42:24.374Z,10.73
2018-06-27T13:44:52.692Z,11.33
2018-06-27T13:47:21.012Z,10.73
2018-06-27T13:49:49.551Z,9.77
2018-06-27T13:52:17.874Z,9.87
2018-06-27T13:54:51.694Z,10.67
2018-06-27T13:57:20.024Z,12.87
2018-06-27T13:59:48.352Z,11.23
2018-06-27T14:02:16.685Z,13.40
2018-06-27T14:04:45.224Z,11.63
2018-06-27T14:07:13.624Z,11.37
2018-06-27T14:09:41.944Z,11.60
2018-06-27T14:12:10.284Z,9.93
2018-06-27T14:14:38.626Z,10.87
2018-06-27T14:17:06.998Z,11.50
2018-06-27T14:19:35.376Z,10.60
2018-06-27T14:22:03.988Z,10.40
2018-06-27T14:24:32.304Z,9.33
2018-06-27T14:27:00.594Z,9.70
2018-06-27T14:29:29.061Z,9.17
2018-06-27T14:31:57.604Z,9.70
2018-06-27T14:34:25.942Z,10.27
2018-06-27T14:36:54.264Z,9.37
2018-06-27T14:39:22.664Z,10.23
2018-06-27T14:41:50.956Z,10.57
2018-06-27T14:44:19.598Z,9.77
2018-06-27T14:46:47.988Z,8.87
2018-06-27T14:49:16.402Z,9.50
2018-06-27T14:51:44.736Z,10.23
2018-06-27T14:54:13.146Z,8.90
2018-06-27T14:56:41.534Z,8.40
2018-06-27T14:59:09.866Z,9.00
2018-06-27T15:01:38.219Z,8.60
2018-06-27T15:04:06.582Z,8.67
2018-06-27T15:06:34.887Z,7.50
2018-06-27T15:09:03.260Z,8.37
2018-06-27T15:11:31.596Z,8.77
2018-06-27T15:13:59.948Z,8.03
2018-06-27T15:16:28.268Z,9.50
2018-06-27T15:18:56.584Z,7.97
2018-06-27T15:21:24.922Z,7.40
2018-06-27T15:23:53.285Z,8.00
2018-06-27T15:26:21.870Z,7.53
2018-06-27T15:28:50.422Z,6.77
2018-06-27T15:31:18.796Z,6.70
2018-06-27T15:33:47.138Z,9.23
2018-06-27T15:36:15.506Z,7.27
2018-06-27T15:38:44.024Z,7.33
2018-06-27T15:41:12.358Z,7.37
2018-06-27T15:43:40.674Z,7.17
2018-06-27T15:46:09.059Z,5.73
2018-06-27T15:48:37.406Z,6.13
2018-06-27T15:51:05.959Z,6.33
2018-06-27T15:53:34.244Z,6.60
2018-06-27T15:56:02.634Z,6.77
2018-06-27T15:58:30.956Z,7.20
2018-06-27T16:00:59.278Z,6.97
2018-06-27T16:03:27.646Z,7.73
2018-06-27T16:05:56.037Z,6.50
2018-06-27T16:08:24.373Z,5.77
2018-06-27T16:10:52.498Z,6.60
2018-06-27T16:13:20.813Z,6.40
2018-06-27T16:15:49.145Z,6.93
2018-06-27T16:18:17.475Z,6.50
2018-06-27T16:20:45.808Z,5.30
2018-06-27T16:23:14.169Z,6.43
2018-06-27T16:25:42.510Z,6.23
2018-06-27T16:28:10.570Z,6.10
2018-06-27T16:30:38.902Z,5.13
2018-06-27T16:33:07.268Z,5.97
2018-06-27T16:35:35.627Z,5.03
2018-06-27T16:38:05.213Z,5.97
2018-06-27T16:40:34.562Z,5.20
2018-06-27T16:43:02.893Z,5.20
2018-06-27T16:45:31.243Z,5.63
2018-06-27T16:47:59.638Z,5.10
2018-06-27T16:50:27.976Z,5.97
2018-06-27T16:52:56.313Z,5.57
2018-06-27T16:55:24.668Z,5.50
2018-06-27T16:57:53.002Z,5.63
2018-06-27T17:00:21.342Z,5.17
2018-06-27T17:02:49.676Z,5.47
2018-06-27T17:05:18.053Z,5.50
2018-06-27T17:07:46.392Z,4.50
2018-06-27T17:10:14.732Z,5.20
2018-06-27T17:12:43.066Z,5.37
2018-06-27T17:15:11.366Z,5.33
2018-06-27T17:17:39.696Z,5.47
2018-06-27T17:20:08.249Z,5.00
2018-06-27T17:22:36.547Z,4.80
2018-06-27T17:25:05.007Z,5.53
2018-06-27T17:27:33.387Z,4.87
2018-06-27T17:30:01.728Z,4.80
2018-06-27T17:32:30.065Z,5.20
2018-06-27T17:34:58.391Z,5.00
2018-06-27T17:37:26.736Z,5.20
2018-06-27T17:39:55.088Z,5.17
2018-06-27T17:42:23.410Z,5.57
2018-06-27T17:44:51.748Z,4.83
2018-06-27T17:47:20.061Z,4.93
2018-06-27T17:49:48.385Z,5.23
2018-06-27T17:52:16.714Z,4.87
2018-06-27T17:54:45.044Z,5.33
2018-06-27T17:57:13.345Z,4.70
2018-06-27T17:59:41.666Z,5.67
2018-06-27T18:02:10.064Z,5.40
2018-06-27T18:04:38.374Z,5.20
2018-06-27T18:07:06.705Z,4.97
2018-06-27T18:09:35.029Z,5.90
2018-06-27T18:12:03.100Z,5.77
2018-06-27T18:14:31.419Z,6.17
2018-06-27T18:16:59.778Z,6.20
2018-06-27T18:19:28.086Z,5.70
2018-06-27T18:21:56.436Z,5.67
2018-06-27T18:24:24.820Z,5.80
2018-06-27T18:26:53.158Z,5.57
2018-06-27T18:29:21.495Z,6.27
2018-06-27T18:31:49.836Z,5.67
2018-06-27T18:34:18.176Z,5.50
2018-06-27T18:36:46.484Z,5.83
2018-06-27T18:39:14.820Z,5.40
2018-06-27T18:41:43.148Z,6.73
2018-06-27T18:44:11.592Z,6.10
2018-06-27T18:46:39.868Z,6.57
2018-06-27T18:49:08.183Z,6.37
2018-06-27T18:51:36.558Z,6.30
2018-06-27T18:54:04.900Z,6.30
2018-06-27T18:56:33.248Z,6.17
2018-06-27T18:59:01.653Z,6.77
2018-06-27T19:01:29.993Z,6.60
2018-06-27T19:03:58.384Z,7.67
2018-06-27T19:06:26.734Z,7.33
2018-06-27T19:08:55.104Z,6.27
2018-06-27T19:11:23.460Z,6.63
2018-06-27T19:13:51.797Z,6.97
2018-06-27T19:16:20.216Z,6.10
2018-06-27T19:18:48.566Z,6.80
2018-06-27T19:21:16.948Z,6.90
2018-06-27T19:23:45.402Z,6.83
2018-06-27T19:26:13.833Z,6.50
2018-06-27T19:28:42.165Z,6.43
2018-06-27T19:31:10.508Z,7.17
2018-06-27T19:33:39.002Z,6.77
2018-06-27T19:36:07.320Z,6.90
2018-06-27T19:38:35.490Z,6.77
2018-06-27T19:41:03.919Z,6.60
2018-06-27T19:43:32.203Z,6.87
2018-06-27T19:46:00.527Z,6.40
2018-06-27T19:48:28.901Z,6.50
2018-06-27T19:50:57.245Z,6.90
2018-06-27T19:53:25.593Z,7.17
2018-06-27T19:55:53.959Z,7.50
2018-06-27T19:58:22.424Z,7.40
2018-06-27T20:00:50.697Z,6.83
2018-06-27T20:03:19.021Z,8.03
2018-06-27T20:05:47.345Z,6.47
2018-06-27T20:08:15.691Z,7.50
2018-06-27T20:10:44.025Z,11.57
2018-06-27T20:13:12.081Z,7.37
2018-06-27T20:15:40.291Z,8.03
2018-06-27T20:18:08.665Z,7.53
2018-06-27T20:20:37.165Z,8.33
2018-06-27T20:23:05.741Z,7.60
2018-06-27T20:25:34.067Z,7.70
2018-06-27T20:28:02.417Z,8.07
2018-06-27T20:30:30.753Z,8.13
2018-06-27T20:32:59.103Z,8.87
2018-06-27T20:35:27.229Z,8.27
2018-06-27T20:37:55.625Z,8.83
2018-06-27T20:40:23.999Z,8.27
2018-06-27T20:42:52.369Z,8.60
2018-06-27T20:45:20.709Z,8.73
2018-06-27T20:47:49.052Z,8.47
2018-06-27T20:50:17.405Z,8.63
2018-06-27T20:52:45.787Z,8.83
2018-06-27T20:55:14.129Z,8.20
2018-06-27T20:57:42.463Z,8.17
2018-06-27T21:00:10.813Z,9.10
2018-06-27T21:02:39.129Z,9.27
2018-06-27T21:05:07.501Z,9.07
2018-06-27T21:07:35.567Z,8.57
2018-06-27T21:10:03.951Z,9.47
2018-06-27T21:12:32.277Z,9.03
2018-06-27T21:15:00.621Z,8.77
2018-06-27T21:17:28.963Z,8.10
2018-06-27T21:19:57.304Z,8.27
2018-06-27T21:22:25.694Z,8.10
2018-06-27T21:24:54.028Z,8.93
2018-06-27T21:27:22.343Z,8.47
2018-06-27T21:29:50.661Z,8.43
2018-06-27T21:32:18.999Z,9.20
2018-06-27T21:34:47.291Z,8.93
2018-06-27T21:37:15.691Z,9.63
2018-06-27T21:39:43.995Z,8.73
2018-06-27T21:42:12.326Z,8.70
2018-06-27T21:44:40.715Z,8.77
2018-06-27T21:47:09.025Z,8.80
2018-06-27T21:49:37.349Z,8.70
2018-06-27T21:52:05.880Z,9.37
2018-06-27T21:54:34.181Z,8.83
2018-06-27T21:57:02.491Z,8.20
2018-06-27T21:59:30.834Z,9.20
2018-06-27T22:01:59.179Z,8.40
2018-06-27T22:04:27.269Z,9.20
2018-06-27T22:06:55.325Z,9.27
2018-06-27T22:09:23.535Z,9.13
2018-06-27T22:11:51.841Z,9.23
2018-06-27T22:14:20.179Z,9.10
2018-06-27T22:16:48.528Z,8.20
2018-06-27T22:21:51.762Z,9.00
2018-06-27T22:24:20.005Z,10.00
2018-06-27T22:26:48.345Z,10.10
2018-06-27T22:29:16.675Z,10.23
2018-06-27T22:31:45.043Z,9.77
2018-06-27T22:34:13.353Z,10.27
2018-06-27T22:36:41.686Z,9.60
2018-06-27T22:39:11.191Z,10.93
2018-06-27T22:41:40.043Z,10.03
2018-06-27T22:44:08.319Z,10.07
2018-06-27T22:46:37.148Z,9.87
2018-06-27T22:49:05.754Z,9.40
2018-06-27T22:51:34.110Z,10.77
2018-06-27T22:54:02.485Z,9.97
2018-06-27T22:56:30.817Z,11.00
2018-06-27T22:58:59.113Z,9.87
2018-06-27T23:01:27.492Z,10.70
2018-06-27T23:03:55.798Z,10.03
2018-06-27T23:06:24.444Z,10.60
2018-06-27T23:08:52.721Z,10.63
2018-06-27T23:11:21.063Z,10.37
2018-06-27T23:13:49.429Z,10.53
2018-06-27T23:16:17.759Z,10.27
2018-06-27T23:18:46.199Z,10.27
2018-06-27T23:21:14.251Z,10.73
2018-06-27T23:23:42.597Z,10.30
2018-06-27T23:26:10.958Z,11.03
2018-06-27T23:28:39.275Z,10.97
2018-06-27T23:31:07.559Z,11.17
2018-06-27T23:33:35.894Z,10.13
2018-06-27T23:36:04.330Z,10.37
2018-06-27T23:38:32.699Z,10.80
2018-06-27T23:41:01.049Z,11.23
2018-06-27T23:43:29.394Z,10.80
2018-06-27T23:45:57.690Z,11.20
2018-06-27T23:48:26.029Z,10.70
2018-06-27T23:50:54.343Z,11.10
2018-06-27T23:53:22.666Z,10.63
2018-06-27T23:55:50.981Z,11.20
2018-06-27T23:58:19.272Z,10.37
